This is the latest recevied weather packets stored in our database for station/object ZB2YN-13. If no packets are shown the sender has not sent any weather packets the latest 10 day(s).
| Time | Temp. | Humidity | Pressure | Rain* | Wind** | Luminosity | Snow |
|---|---|---|---|---|---|---|---|
| 1778216405 | 16.11° C | 80% | 1003.1 hPa | 0 mm | - | - | - |
| 1778212805 | 16.67° C | 79% | 1002.9 hPa | 0 mm | - | - | - |
| 1778209206 | 16.11° C | 78% | 1003.6 hPa | 0 mm | - | - | - |
| 1778205606 | 15.56° C | 82% | 1003.5 hPa | 0 mm | - | - | - |
| 1778202006 | 16.11° C | 78% | 1003.6 hPa | 0 mm | - | - | - |
| 1778198405 | 16.11° C | 73% | 1004 hPa | 0 mm | - | - | - |
| 1778194805 | 16.67° C | 77% | 1004.9 hPa | 0 mm | - | - | - |
| 1778191206 | 16.67° C | 76% | 1004.9 hPa | 0 mm | - | - | - |
| 1778187606 | 17.22° C | 76% | 1004.8 hPa | 0 mm | - | - | - |
| 1778184006 | 17.78° C | 70% | 1004.1 hPa | 0 mm | - | - | - |
| 1778180405 | 19.44° C | 58% | 1003.2 hPa | 0 mm | - | - | - |
| 1778176805 | 21.11° C | 53% | 1002.9 hPa | 0 mm | - | - | - |
| 1778173206 | 22.22° C | 52% | 1002.7 hPa | 0 mm | - | - | - |
| 1778169606 | 22.78° C | 48% | 1002.4 hPa | 0 mm | - | - | - |
| 1778166005 | 23.33° C | 47% | 1002.7 hPa | 0 mm | - | - | - |
| 1778162405 | 23.33° C | 50% | 1003.1 hPa | 0 mm | - | - | - |
| 1778158805 | 22.22° C | 53% | 1003.6 hPa | 0 mm | - | - | - |
| 1778155206 | 21.11° C | 56% | 1004.1 hPa | 0 mm | - | - | - |
| 1778151606 | 21.11° C | 58% | 1004.2 hPa | 0 mm | - | - | - |
| 1778148005 | 19.44° C | 69% | 1004.3 hPa | 0 mm | - | - | - |
| 1778144405 | 18.33° C | 72% | 1004.3 hPa | 0 mm | - | - | - |
| 1778140805 | 17.22° C | 77% | 1004 hPa | 0 mm | - | - | - |
| 1778137206 | 15.56° C | 82% | 1003.8 hPa | 0 mm | - | - | - |
| 1778133606 | 13.89° C | 88% | 1003.2 hPa | 0 mm | - | - | - |
| 1778130006 | 15.56° C | 85% | 1002.1 hPa | 0 mm | - | - | - |
* Rain latest hour (hover to see other rain measurements)
** Current wind speed in m/s (hover to see current wind gust speed)